Time;durP1;ratioP1;P1;durP2;ratioP2;P2;SDS_P1;SDS_P2;PMS_P1;PMS_P2;Temp;Humidity;BMP_temperature;BMP_pressure;BME280_temperature;BME280_humidity;BME280_pressure;Samples;Min_cycle;Max_cycle;Signal;HPM_P1;HPM_P2
2021/05/23 00:00:12;;;;;;;4.97;2.03;;;;;;;;;;356991;109;1961976;-71
2021/05/23 00:01:24;;;;;;;4.71;1.94;;;;;;;;;;394393;104;1987008;-72
2021/05/23 00:02:29;;;;;;;6.51;2.15;;;;;;;;;;374953;106;1962051;-71
2021/05/23 00:03:35;;;;;;;4.83;1.94;;;;;;;;;;377681;106;1962959;-72
2021/05/23 00:04:40;;;;;;;6.38;1.96;;;;;;;;;;379804;106;1962002;-72
2021/05/23 00:05:45;;;;;;;14.16;2.16;;;;;;;;;;379853;106;1961965;-71
2021/05/23 00:06:52;;;;;;;7.29;2.14;;;;;;;;;;321260;106;2140162;-71
2021/05/23 00:08:04;;;;;;;4.34;1.92;;;;;;;;;;338814;106;1966916;-71
2021/05/23 00:09:09;;;;;;;7.15;2.02;;;;;;;;;;376577;106;1962002;-72
2021/05/23 00:10:16;;;;;;;4.82;1.90;;;;;;;;;;376627;106;1961920;-69
2021/05/23 00:11:21;;;;;;;3.92;1.71;;;;;;;;;;376718;106;1961921;-72
2021/05/23 00:12:26;;;;;;;6.66;2.48;;;;;;;;;;380700;106;1963979;-71
2021/05/23 00:13:37;;;;;;;5.61;1.95;;;;;;;;;;325665;106;2067940;-72
2021/05/23 00:14:43;;;;;;;4.78;2.04;;;;;;;;;;311967;106;2185939;-71
2021/05/23 00:15:53;;;;;;;6.13;2.47;;;;;;;;;;346254;105;1964969;-72
2021/05/23 00:16:58;;;;;;;4.88;2.29;;;;;;;;;;349204;106;1962967;-69
2021/05/23 00:18:05;;;;;;;6.97;2.69;;;;;;;;;;373233;106;1963742;-72
2021/05/23 00:19:10;;;;;;;5.97;2.53;;;;;;;;;;378924;105;1961951;-72
2021/05/23 00:20:16;;;;;;;6.47;2.17;;;;;;;;;;378074;106;1961931;-71
2021/05/23 00:21:22;;;;;;;6.97;2.61;;;;;;;;;;376994;106;1962011;-71
2021/05/23 00:22:28;;;;;;;6.67;2.61;;;;;;;;;;346095;106;2488926;-71
2021/05/23 00:23:33;;;;;;;7.31;2.11;;;;;;;;;;354554;106;1960991;-71
2021/05/23 00:24:39;;;;;;;6.91;2.56;;;;;;;;;;375720;106;1960969;-72
2021/05/23 00:25:44;;;;;;;7.75;3.01;;;;;;;;;;374664;106;1960858;-72
2021/05/23 00:26:49;;;;;;;5.39;2.54;;;;;;;;;;381232;106;1962976;-72
2021/05/23 00:27:54;;;;;;;8.89;2.86;;;;;;;;;;377082;106;1960855;-71
2021/05/23 00:28:59;;;;;;;4.45;2.31;;;;;;;;;;378080;106;1961989;-71
2021/05/23 00:30:11;;;;;;;4.61;2.43;;;;;;;;;;395348;104;1985996;-71
2021/05/23 00:31:16;;;;;;;5.43;2.34;;;;;;;;;;375911;106;1961991;-71
2021/05/23 00:32:28;;;;;;;5.77;2.34;;;;;;;;;;357780;104;2548999;-72
2021/05/23 00:33:38;;;;;;;4.85;2.14;;;;;;;;;;362556;108;1964008;-72
2021/05/23 00:35:09;;;;;;;4.56;2.07;;;;;;;;;;361318;105;1985949;-73
2021/05/23 00:36:15;;;;;;;6.26;2.61;;;;;;;;;;370092;108;1962077;-71
2021/05/23 00:37:19;;;;;;;4.92;2.08;;;;;;;;;;365540;109;1965006;-71
2021/05/23 00:38:24;;;;;;;5.08;2.39;;;;;;;;;;363180;110;1961831;-72
2021/05/23 00:39:29;;;;;;;5.49;2.19;;;;;;;;;;361930;111;1961804;-71
2021/05/23 00:40:37;;;;;;;6.91;2.11;;;;;;;;;;363655;110;1961916;-72
2021/05/23 00:41:42;;;;;;;6.29;2.75;;;;;;;;;;365321;111;1962058;-71
2021/05/23 00:42:48;;;;;;;5.06;2.76;;;;;;;;;;363787;111;1964016;-72
2021/05/23 00:43:53;;;;;;;7.92;2.31;;;;;;;;;;335473;110;2490002;-71
2021/05/23 00:44:59;;;;;;;4.42;2.36;;;;;;;;;;334698;111;1961953;-71
2021/05/23 00:46:04;;;;;;;4.09;2.37;;;;;;;;;;332538;110;1961879;-71
2021/05/23 00:47:09;;;;;;;3.90;1.99;;;;;;;;;;338473;111;1961976;-70
2021/05/23 00:48:14;;;;;;;4.57;2.37;;;;;;;;;;337766;110;1963028;-71
2021/05/23 00:49:19;;;;;;;5.07;2.54;;;;;;;;;;333188;110;1963945;-72
2021/05/23 00:50:25;;;;;;;5.83;2.39;;;;;;;;;;343060;111;1960918;-71
2021/05/23 00:51:30;;;;;;;5.36;2.89;;;;;;;;;;360704;111;1961966;-71
2021/05/23 00:52:35;;;;;;;5.22;2.01;;;;;;;;;;358596;111;1961989;-71
2021/05/23 00:53:49;;;;;;;6.06;2.51;;;;;;;;;;386361;103;2971939;-72
2021/05/23 00:54:54;;;;;;;4.78;2.19;;;;;;;;;;336965;105;1961925;-72
2021/05/23 00:55:59;;;;;;;4.41;2.39;;;;;;;;;;351654;106;1962047;-71
2021/05/23 00:57:05;;;;;;;5.47;2.18;;;;;;;;;;375744;106;1961996;-71
2021/05/23 00:58:10;;;;;;;4.93;2.41;;;;;;;;;;376023;106;1961942;-70
2021/05/23 00:59:16;;;;;;;6.09;2.47;;;;;;;;;;375938;106;1962011;-70
2021/05/23 01:00:23;;;;;;;4.15;2.43;;;;;;;;;;367443;109;1961986;-71
2021/05/23 01:01:46;;;;;;;5.29;2.06;;;;;;;;;;396565;104;1985959;-72
2021/05/23 01:02:53;;;;;;;4.13;1.99;;;;;;;;;;365829;107;1962042;-71
2021/05/23 01:04:08;;;;;;;3.88;2.10;;;;;;;;;;367509;108;1961946;-71
2021/05/23 01:05:16;;;;;;;6.66;2.39;;;;;;;;;;328711;109;2607105;-72
2021/05/23 01:06:21;;;;;;;4.59;2.31;;;;;;;;;;366023;110;1962967;-71
2021/05/23 01:07:26;;;;;;;6.69;2.63;;;;;;;;;;358493;109;1961024;-72
2021/05/23 01:08:34;;;;;;;5.19;2.18;;;;;;;;;;359085;112;1961978;-72
2021/05/23 01:09:39;;;;;;;4.46;2.09;;;;;;;;;;295657;111;2198965;-72
2021/05/23 01:10:56;;;;;;;4.42;1.91;;;;;;;;;;357961;111;1960716;-71
2021/05/23 01:12:21;;;;;;;3.93;2.17;;;;;;;;;;360167;112;1960690;-72
2021/05/23 01:13:37;;;;;;;4.16;2.10;;;;;;;;;;357838;112;1959845;-71
2021/05/23 01:14:45;;;;;;;3.73;1.91;;;;;;;;;;356062;111;1960821;-72
2021/05/23 01:15:50;;;;;;;4.81;1.90;;;;;;;;;;360738;111;1961974;-72
2021/05/23 01:16:56;;;;;;;5.53;2.13;;;;;;;;;;360871;113;1965983;-72
2021/05/23 01:18:02;;;;;;;5.55;3.09;;;;;;;;;;354905;112;1962980;-72
2021/05/23 01:19:25;;;;;;;5.99;2.26;;;;;;;;;;353709;113;1961967;-71
2021/05/23 01:20:47;;;;;;;4.41;2.38;;;;;;;;;;358808;111;1961955;-72
2021/05/23 01:21:55;;;;;;;5.33;2.33;;;;;;;;;;359878;112;1962926;-72
2021/05/23 01:23:05;;;;;;;5.13;2.28;;;;;;;;;;358938;112;1961967;-73
2021/05/23 01:24:12;;;;;;;4.41;2.37;;;;;;;;;;356207;111;1962001;-71
2021/05/23 01:25:19;;;;;;;5.96;2.46;;;;;;;;;;360545;111;1961971;-71
2021/05/23 01:26:28;;;;;;;3.98;2.22;;;;;;;;;;355547;112;1961913;-72
2021/05/23 01:28:56;;;;;;;5.28;2.84;;;;;;;;;;392735;103;1986935;-72
2021/05/23 01:30:07;;;;;;;9.37;2.73;;;;;;;;;;376061;106;1962040;-70
2021/05/23 01:31:21;;;;;;;3.98;2.27;;;;;;;;;;350399;101;2833971;-73
2021/05/23 01:32:27;;;;;;;4.98;1.78;;;;;;;;;;374826;106;1964014;-71
2021/05/23 01:33:54;;;;;;;4.18;2.11;;;;;;;;;;350627;105;1962942;-71
2021/05/23 01:35:07;;;;;;;7.19;2.32;;;;;;;;;;397375;104;1986954;-72
2021/05/23 01:36:15;;;;;;;3.87;2.27;;;;;;;;;;345319;105;2891016;-72
2021/05/23 01:37:21;;;;;;;4.57;2.19;;;;;;;;;;321357;106;2097940;-71
2021/05/23 01:38:27;;;;;;;4.26;2.47;;;;;;;;;;376531;107;1961990;-72
2021/05/23 01:39:59;;;;;;;4.93;2.16;;;;;;;;;;382255;105;1986957;-72
2021/05/23 01:41:06;;;;;;;7.42;2.48;;;;;;;;;;315390;109;2807003;-71
2021/05/23 01:42:12;;;;;;;6.64;2.44;;;;;;;;;;363891;109;1961936;-72
2021/05/23 01:43:18;;;;;;;4.83;2.62;;;;;;;;;;367115;109;1960657;-72
2021/05/23 01:44:24;;;;;;;5.57;2.87;;;;;;;;;;367773;108;1961959;-72
2021/05/23 01:45:31;;;;;;;6.97;2.34;;;;;;;;;;322029;108;2789946;-70
2021/05/23 01:46:37;;;;;;;4.46;2.36;;;;;;;;;;370872;107;1961797;-70
2021/05/23 01:47:43;;;;;;;3.89;2.16;;;;;;;;;;369212;108;1961966;-71
2021/05/23 01:48:47;;;;;;;4.57;2.23;;;;;;;;;;369307;108;1961976;-72
2021/05/23 01:49:53;;;;;;;5.78;2.13;;;;;;;;;;368791;108;1964970;-72
2021/05/23 01:50:59;;;;;;;4.84;2.36;;;;;;;;;;368856;109;1962002;-72
2021/05/23 01:52:05;;;;;;;5.83;2.28;;;;;;;;;;369010;109;1962071;-72
2021/05/23 01:53:11;;;;;;;4.21;2.08;;;;;;;;;;318755;108;2055896;-73
2021/05/23 01:54:16;;;;;;;4.46;2.11;;;;;;;;;;359236;107;1962012;-72
2021/05/23 01:55:21;;;;;;;4.72;2.31;;;;;;;;;;357488;108;1962027;-71
2021/05/23 01:56:27;;;;;;;4.21;2.23;;;;;;;;;;369176;108;1964008;-72
2021/05/23 01:57:32;;;;;;;5.24;2.31;;;;;;;;;;369696;108;1961951;-72
2021/05/23 01:58:37;;;;;;;5.95;2.33;;;;;;;;;;368591;108;1962034;-71
2021/05/23 01:59:42;;;;;;;4.50;2.51;;;;;;;;;;371158;108;1961915;-72
2021/05/23 02:00:50;;;;;;;5.09;2.23;;;;;;;;;;358571;110;1962049;-71
2021/05/23 02:01:55;;;;;;;5.32;2.63;;;;;;;;;;328555;111;2501927;-72
2021/05/23 02:03:02;;;;;;;6.34;2.72;;;;;;;;;;320542;108;2054842;-72
2021/05/23 02:04:09;;;;;;;5.81;2.69;;;;;;;;;;368934;108;1961921;-70
2021/05/23 02:05:15;;;;;;;6.13;2.70;;;;;;;;;;367078;109;1961049;-71
2021/05/23 02:06:21;;;;;;;3.85;2.47;;;;;;;;;;325517;109;1974831;-72
2021/05/23 02:07:26;;;;;;;6.87;2.61;;;;;;;;;;338269;109;1961992;-73
2021/05/23 02:08:32;;;;;;;5.45;2.83;;;;;;;;;;355944;110;1962952;-72
2021/05/23 02:09:43;;;;;;;6.41;2.91;;;;;;;;;;391954;104;2072966;-71
2021/05/23 02:10:51;;;;;;;6.36;2.72;;;;;;;;;;380230;105;1962031;-72
2021/05/23 02:11:56;;;;;;;5.17;2.65;;;;;;;;;;334843;105;1968119;-71
2021/05/23 02:13:03;;;;;;;5.71;2.78;;;;;;;;;;370192;107;1962956;-72
2021/05/23 02:14:15;;;;;;;5.81;2.91;;;;;;;;;;399603;104;1986928;-70
2021/05/23 02:15:20;;;;;;;4.63;2.29;;;;;;;;;;375318;105;1962013;-72
2021/05/23 02:16:27;;;;;;;5.35;3.15;;;;;;;;;;375374;107;1963978;-71
2021/05/23 02:17:36;;;;;;;5.37;2.76;;;;;;;;;;373481;105;1962022;-73
2021/05/23 02:18:48;;;;;;;4.51;2.32;;;;;;;;;;397893;103;1986057;-72
2021/05/23 02:19:53;;;;;;;5.61;2.78;;;;;;;;;;384447;103;1960979;-70
2021/05/23 02:21:00;;;;;;;4.78;2.53;;;;;;;;;;385407;103;1964020;-73
2021/05/23 02:22:08;;;;;;;5.43;2.68;;;;;;;;;;342148;104;2629846;-72
2021/05/23 02:23:20;;;;;;;5.02;3.08;;;;;;;;;;385333;103;1961900;-74
2021/05/23 02:24:26;;;;;;;4.43;2.64;;;;;;;;;;335181;104;2795916;-71
2021/05/23 02:25:32;;;;;;;6.79;2.47;;;;;;;;;;348055;104;1961973;-71
2021/05/23 02:26:44;;;;;;;4.92;2.72;;;;;;;;;;374662;109;1961970;-70
2021/05/23 02:27:50;;;;;;;5.74;2.71;;;;;;;;;;350489;113;1962776;-73
2021/05/23 02:29:00;;;;;;;4.73;2.49;;;;;;;;;;344004;113;2961940;-72
2021/05/23 02:30:07;;;;;;;4.71;2.42;;;;;;;;;;351744;113;1961929;-73
2021/05/23 02:31:12;;;;;;;4.82;2.05;;;;;;;;;;323656;113;1961996;-74
2021/05/23 02:32:17;;;;;;;5.56;2.66;;;;;;;;;;330311;109;1961006;-72
2021/05/23 02:33:22;;;;;;;4.97;2.21;;;;;;;;;;333758;110;1963917;-73
2021/05/23 02:34:27;;;;;;;4.77;2.02;;;;;;;;;;353045;110;1961864;-73
2021/05/23 02:35:34;;;;;;;5.70;2.45;;;;;;;;;;355491;114;1961973;-74
2021/05/23 02:36:40;;;;;;;4.21;2.03;;;;;;;;;;359174;110;1963975;-72
2021/05/23 02:37:46;;;;;;;5.40;2.29;;;;;;;;;;364482;110;1962955;-71
2021/05/23 02:38:52;;;;;;;4.14;2.22;;;;;;;;;;312917;112;2806043;-71
2021/05/23 02:39:59;;;;;;;4.97;1.77;;;;;;;;;;345204;110;1962763;-72
2021/05/23 02:41:04;;;;;;;3.43;2.02;;;;;;;;;;361271;110;1961927;-72
2021/05/23 02:42:36;;;;;;;3.80;1.88;;;;;;;;;;411291;99;1985901;-71
2021/05/23 02:43:42;;;;;;;4.51;2.73;;;;;;;;;;356207;103;2522984;-71
2021/05/23 02:44:47;;;;;;;5.78;2.57;;;;;;;;;;328175;102;2123961;-73
2021/05/23 02:45:52;;;;;;;5.59;2.26;;;;;;;;;;325674;105;2122975;-72
2021/05/23 02:46:57;;;;;;;6.25;2.25;;;;;;;;;;350306;103;1961970;-72
2021/05/23 02:48:09;;;;;;;3.99;2.22;;;;;;;;;;385907;106;1985892;-72
2021/05/23 02:49:14;;;;;;;3.95;2.28;;;;;;;;;;368350;108;1962952;-73
2021/05/23 02:50:24;;;;;;;5.50;2.36;;;;;;;;;;359579;108;2940982;-71
2021/05/23 02:51:29;;;;;;;3.89;2.06;;;;;;;;;;367871;107;1961984;-73
2021/05/23 02:52:34;;;;;;;3.51;1.82;;;;;;;;;;360646;110;1962065;-73
2021/05/23 02:53:39;;;;;;;3.99;2.11;;;;;;;;;;361451;109;1961960;-73
2021/05/23 02:54:45;;;;;;;3.94;2.13;;;;;;;;;;362060;109;1963002;-73
2021/05/23 02:55:50;;;;;;;6.69;2.03;;;;;;;;;;357482;112;1962000;-72
2021/05/23 02:56:56;;;;;;;6.38;2.43;;;;;;;;;;359260;112;1962989;-73
2021/05/23 02:58:03;;;;;;;3.57;2.44;;;;;;;;;;360766;109;1961956;-72
2021/05/23 02:59:08;;;;;;;4.83;2.57;;;;;;;;;;357497;110;1961979;-72
2021/05/23 03:00:16;;;;;;;6.51;2.21;;;;;;;;;;359164;109;1961949;-72
2021/05/23 03:01:27;;;;;;;5.24;2.09;;;;;;;;;;361819;103;1987028;-72
2021/05/23 03:02:33;;;;;;;4.50;2.12;;;;;;;;;;333025;107;1961894;-71
2021/05/23 03:03:38;;;;;;;7.09;2.16;;;;;;;;;;354034;107;1961981;-73
2021/05/23 03:04:43;;;;;;;4.41;1.92;;;;;;;;;;361648;107;1961961;-72
2021/05/23 03:05:48;;;;;;;3.53;1.62;;;;;;;;;;359537;109;1962019;-73
2021/05/23 03:06:53;;;;;;;4.06;2.11;;;;;;;;;;371160;109;1966040;-72
2021/05/23 03:07:59;;;;;;;6.22;1.94;;;;;;;;;;371468;107;1961959;-73
2021/05/23 03:09:10;;;;;;;4.49;2.09;;;;;;;;;;402239;101;1985959;-72
2021/05/23 03:10:17;;;;;;;5.17;1.80;;;;;;;;;;385696;104;1962078;-73
2021/05/23 03:11:23;;;;;;;4.33;1.95;;;;;;;;;;382003;103;1961962;-73
2021/05/23 03:12:28;;;;;;;3.22;1.59;;;;;;;;;;379911;105;1963014;-73
2021/05/23 03:13:33;;;;;;;3.52;1.77;;;;;;;;;;372185;105;1967959;-73
2021/05/23 03:14:45;;;;;;;4.22;1.97;;;;;;;;;;394186;104;1985925;-72
2021/05/23 03:15:50;;;;;;;5.74;2.15;;;;;;;;;;375062;107;1962930;-73
2021/05/23 03:16:55;;;;;;;3.47;1.83;;;;;;;;;;377172;107;1962120;-72
2021/05/23 03:18:02;;;;;;;4.50;1.72;;;;;;;;;;368907;109;1962072;-73
2021/05/23 03:19:08;;;;;;;2.97;1.52;;;;;;;;;;348692;108;2894909;-73
2021/05/23 03:20:15;;;;;;;3.86;1.88;;;;;;;;;;366130;107;1961961;-73
2021/05/23 03:21:20;;;;;;;5.04;2.33;;;;;;;;;;367503;109;1961872;-72
2021/05/23 03:22:25;;;;;;;6.01;2.09;;;;;;;;;;370207;109;1961906;-72
2021/05/23 03:23:30;;;;;;;2.73;1.86;;;;;;;;;;368877;109;1963044;-72
2021/05/23 03:24:36;;;;;;;4.49;1.81;;;;;;;;;;369255;109;1961989;-72
2021/05/23 03:25:41;;;;;;;3.63;2.33;;;;;;;;;;367635;109;1963998;-72
2021/05/23 03:26:53;;;;;;;3.19;1.67;;;;;;;;;;350981;104;2718083;-72
2021/05/23 03:27:59;;;;;;;3.25;1.74;;;;;;;;;;299270;110;2199924;-70
2021/05/23 03:29:04;;;;;;;3.58;1.47;;;;;;;;;;363278;106;1961995;-71
2021/05/23 03:30:23;;;;;;;3.75;1.75;;;;;;;;;;374760;106;1961976;-73
2021/05/23 03:31:28;;;;;;;4.41;2.08;;;;;;;;;;341223;109;2371974;-74
2021/05/23 03:32:33;;;;;;;4.32;2.36;;;;;;;;;;317243;109;2051914;-72
2021/05/23 03:33:38;;;;;;;5.64;1.97;;;;;;;;;;313019;108;2084789;-72
2021/05/23 03:34:43;;;;;;;3.99;1.91;;;;;;;;;;330983;108;1960825;-74
2021/05/23 03:35:48;;;;;;;4.29;1.66;;;;;;;;;;324352;110;1960915;-72
2021/05/23 03:36:53;;;;;;;3.00;1.79;;;;;;;;;;320458;108;1998062;-73
2021/05/23 03:37:59;;;;;;;3.05;1.63;;;;;;;;;;334749;108;1960859;-72
2021/05/23 03:39:05;;;;;;;3.87;1.49;;;;;;;;;;371081;108;1960847;-72
2021/05/23 03:40:11;;;;;;;3.09;1.63;;;;;;;;;;368125;110;1961961;-74
2021/05/23 03:41:17;;;;;;;4.49;2.06;;;;;;;;;;368836;108;1961931;-73
2021/05/23 03:42:23;;;;;;;4.56;1.94;;;;;;;;;;341835;108;2403838;-73
2021/05/23 03:43:29;;;;;;;3.10;1.76;;;;;;;;;;332524;110;1961983;-73
2021/05/23 03:44:34;;;;;;;4.77;2.09;;;;;;;;;;336156;108;1963892;-73
2021/05/23 03:45:39;;;;;;;5.01;2.12;;;;;;;;;;341718;108;1964028;-72
2021/05/23 03:46:44;;;;;;;3.83;2.07;;;;;;;;;;341864;112;1961909;-71
2021/05/23 03:47:51;;;;;;;3.11;1.95;;;;;;;;;;365657;109;1964012;-72
2021/05/23 03:48:56;;;;;;;4.03;1.91;;;;;;;;;;364510;108;1961943;-73
2021/05/23 03:50:03;;;;;;;5.06;2.11;;;;;;;;;;366756;108;1962035;-73
2021/05/23 03:51:09;;;;;;;4.05;1.90;;;;;;;;;;336400;108;2492026;-72
2021/05/23 03:52:14;;;;;;;4.08;1.91;;;;;;;;;;316430;111;1999973;-72
2021/05/23 03:53:19;;;;;;;3.10;1.59;;;;;;;;;;328197;110;1962060;-72
2021/05/23 03:54:24;;;;;;;4.99;2.12;;;;;;;;;;337728;109;1961962;-72
2021/05/23 03:55:35;;;;;;;2.89;1.73;;;;;;;;;;403269;101;1984998;-72
2021/05/23 03:56:41;;;;;;;4.05;2.04;;;;;;;;;;382657;103;1961990;-72
2021/05/23 03:57:46;;;;;;;4.80;2.28;;;;;;;;;;376467;105;1961978;-73
2021/05/23 03:58:51;;;;;;;5.81;2.23;;;;;;;;;;378386;105;1962020;-71
2021/05/23 03:59:56;;;;;;;4.36;2.24;;;;;;;;;;377745;105;1961958;-72
2021/05/23 04:01:09;;;;;;;6.11;2.30;;;;;;;;;;344081;104;2837804;-72
2021/05/23 04:02:14;;;;;;;4.56;2.06;;;;;;;;;;316691;106;2097802;-71
2021/05/23 04:03:22;;;;;;;6.09;2.48;;;;;;;;;;335994;107;1962937;-73
2021/05/23 04:04:44;;;;;;;4.54;2.09;;;;;;;;;;368330;107;1962906;-72
2021/05/23 04:05:34;;;;;;;4.74;1.79;;;;;;;;;;366431;108;1962876;-71
2021/05/23 04:06:41;;;;;;;4.51;1.99;;;;;;;;;;361622;109;1963039;-72
2021/05/23 04:07:46;;;;;;;3.88;2.18;;;;;;;;;;370400;107;1961990;-72
2021/05/23 04:08:51;;;;;;;4.56;1.74;;;;;;;;;;370608;108;1961940;-73
2021/05/23 04:09:57;;;;;;;6.33;2.27;;;;;;;;;;370307;106;1960716;-71
2021/05/23 04:11:12;;;;;;;4.27;2.36;;;;;;;;;;372144;106;1960821;-72
2021/05/23 04:12:18;;;;;;;4.84;2.17;;;;;;;;;;321078;107;2828961;-72
2021/05/23 04:13:23;;;;;;;4.29;2.46;;;;;;;;;;363652;110;1962002;-72
2021/05/23 04:14:28;;;;;;;5.25;2.11;;;;;;;;;;364379;109;1960972;-72
2021/05/23 04:15:34;;;;;;;2.54;1.58;;;;;;;;;;345516;107;2381771;-73
2021/05/23 04:16:40;;;;;;;4.29;2.08;;;;;;;;;;365504;107;1963118;-72
2021/05/23 04:17:46;;;;;;;4.46;2.36;;;;;;;;;;371490;108;1963916;-72
2021/05/23 04:18:52;;;;;;;4.30;2.01;;;;;;;;;;370195;108;1960984;-72
2021/05/23 04:19:57;;;;;;;5.43;2.12;;;;;;;;;;370781;107;1962010;-73
2021/05/23 04:21:03;;;;;;;4.87;2.71;;;;;;;;;;371463;108;1961916;-72
2021/05/23 04:22:09;;;;;;;4.78;2.59;;;;;;;;;;365652;111;1961882;-72
2021/05/23 04:23:14;;;;;;;5.31;2.46;;;;;;;;;;322431;107;2812876;-72
2021/05/23 04:24:19;;;;;;;6.33;2.62;;;;;;;;;;302635;109;2166061;-72
2021/05/23 04:26:44;;;;;;;4.84;1.98;;;;;;;;;;333996;107;1962046;-72
2021/05/23 04:27:50;;;;;;;6.71;2.46;;;;;;;;;;334763;110;1961939;-72
2021/05/23 04:29:02;;;;;;;5.79;2.70;;;;;;;;;;384418;106;2070769;-72
2021/05/23 04:30:08;;;;;;;4.71;2.63;;;;;;;;;;369237;105;1967611;-72
2021/05/23 04:31:13;;;;;;;4.92;2.51;;;;;;;;;;370257;105;1960897;-73
2021/05/23 04:32:18;;;;;;;5.29;2.61;;;;;;;;;;367147;109;1960876;-74
2021/05/23 04:33:24;;;;;;;5.88;2.73;;;;;;;;;;368006;110;1960828;-73
2021/05/23 04:34:30;;;;;;;4.43;2.53;;;;;;;;;;318583;111;2732841;-73
2021/05/23 04:35:35;;;;;;;4.63;2.51;;;;;;;;;;312796;109;2065805;-72
2021/05/23 04:36:40;;;;;;;6.14;2.19;;;;;;;;;;358053;108;1961758;-73
2021/05/23 04:37:46;;;;;;;5.12;2.51;;;;;;;;;;362453;109;1960753;-73
2021/05/23 04:38:57;;;;;;;4.12;2.72;;;;;;;;;;386842;106;1984771;-73
2021/05/23 04:40:03;;;;;;;5.85;2.45;;;;;;;;;;367728;108;1960753;-73
2021/05/23 04:41:11;;;;;;;4.60;2.62;;;;;;;;;;371424;109;1960925;-73
2021/05/23 04:42:16;;;;;;;5.33;2.43;;;;;;;;;;365238;107;1960923;-73
2021/05/23 04:43:27;;;;;;;4.94;1.97;;;;;;;;;;380008;107;1984771;-73
2021/05/23 04:44:32;;;;;;;4.37;2.18;;;;;;;;;;361642;110;1968843;-72
2021/05/23 04:45:38;;;;;;;4.54;2.41;;;;;;;;;;364377;109;1960849;-73
2021/05/23 04:46:44;;;;;;;5.34;2.21;;;;;;;;;;362466;106;1960677;-72
2021/05/23 04:47:49;;;;;;;4.42;2.21;;;;;;;;;;358574;110;1960813;-73
2021/05/23 04:48:55;;;;;;;3.91;2.48;;;;;;;;;;331442;112;2394811;-73
2021/05/23 04:50:03;;;;;;;4.16;2.24;;;;;;;;;;349864;113;1960902;-73
2021/05/23 04:51:09;;;;;;;2.94;2.07;;;;;;;;;;349664;113;1960781;-74
2021/05/23 04:52:14;;;;;;;4.74;2.30;;;;;;;;;;347345;116;1961027;-74
2021/05/23 04:53:20;;;;;;;5.16;2.36;;;;;;;;;;297620;114;2866881;-73
2021/05/23 04:54:25;;;;;;;4.72;1.94;;;;;;;;;;311973;114;1960741;-73
2021/05/23 04:55:30;;;;;;;3.48;1.84;;;;;;;;;;322058;115;1960794;-73
2021/05/23 04:56:36;;;;;;;5.98;2.57;;;;;;;;;;346362;115;1960809;-72
2021/05/23 04:57:41;;;;;;;4.93;1.96;;;;;;;;;;344711;115;1960737;-73
2021/05/23 04:58:47;;;;;;;13.37;3.14;;;;;;;;;;349455;114;1961019;-73
2021/05/23 04:59:52;;;;;;;3.98;1.80;;;;;;;;;;345013;115;1961848;-74
2021/05/23 05:00:59;;;;;;;4.02;1.80;;;;;;;;;;350186;115;1960942;-73
2021/05/23 05:02:04;;;;;;;5.04;2.40;;;;;;;;;;347800;115;1960860;-72
2021/05/23 05:03:15;;;;;;;4.77;2.09;;;;;;;;;;366509;103;1984760;-72
2021/05/23 05:04:20;;;;;;;3.41;1.72;;;;;;;;;;341056;107;1961909;-72
2021/05/23 05:05:26;;;;;;;5.32;1.96;;;;;;;;;;336919;107;1961011;-74
2021/05/23 05:06:31;;;;;;;5.46;2.01;;;;;;;;;;377894;107;1961017;-73
2021/05/23 05:07:37;;;;;;;4.41;2.07;;;;;;;;;;371960;106;1960846;-72
2021/05/23 05:08:42;;;;;;;4.41;1.89;;;;;;;;;;372305;106;1960767;-72
2021/05/23 05:09:47;;;;;;;3.07;1.71;;;;;;;;;;373401;106;1962027;-74
2021/05/23 05:10:52;;;;;;;3.53;1.72;;;;;;;;;;372454;105;1961886;-73
2021/05/23 05:11:58;;;;;;;4.84;1.67;;;;;;;;;;371165;107;1960668;-72
2021/05/23 05:13:03;;;;;;;11.25;2.14;;;;;;;;;;372689;106;1960830;-73
2021/05/23 05:14:10;;;;;;;4.65;1.72;;;;;;;;;;373823;103;1960726;-73
2021/05/23 05:15:15;;;;;;;4.41;1.64;;;;;;;;;;348658;107;2388958;-72
2021/05/23 05:16:22;;;;;;;4.28;2.32;;;;;;;;;;370738;108;1961752;-73
2021/05/23 05:17:27;;;;;;;3.96;1.94;;;;;;;;;;371947;107;1960770;-73
2021/05/23 05:18:34;;;;;;;2.11;1.50;;;;;;;;;;366095;107;1960820;-74
2021/05/23 05:19:40;;;;;;;4.01;1.64;;;;;;;;;;369913;106;1960809;-73
2021/05/23 05:20:46;;;;;;;3.13;1.53;;;;;;;;;;372857;105;1961022;-73
2021/05/23 05:21:51;;;;;;;3.43;1.77;;;;;;;;;;370416;107;1960838;-74
2021/05/23 05:22:56;;;;;;;6.12;1.92;;;;;;;;;;371924;107;1960928;-73
2021/05/23 05:24:02;;;;;;;3.29;1.59;;;;;;;;;;373836;107;1960791;-74
2021/05/23 05:25:08;;;;;;;3.69;1.64;;;;;;;;;;372357;106;1960811;-74
2021/05/23 05:26:13;;;;;;;5.31;1.65;;;;;;;;;;372808;103;1960825;-73
2021/05/23 05:27:20;;;;;;;3.86;1.82;;;;;;;;;;372979;103;1960953;-73
2021/05/23 05:28:26;;;;;;;4.37;1.64;;;;;;;;;;363253;105;2961857;-73
2021/05/23 05:29:31;;;;;;;3.02;1.41;;;;;;;;;;338560;108;1961797;-74
2021/05/23 05:30:36;;;;;;;3.23;1.48;;;;;;;;;;367634;107;1960656;-74
2021/05/23 05:31:41;;;;;;;4.52;1.63;;;;;;;;;;370030;107;1960782;-74
2021/05/23 05:32:47;;;;;;;2.83;1.56;;;;;;;;;;371896;105;1960789;-73
2021/05/23 05:33:52;;;;;;;3.59;1.62;;;;;;;;;;365871;105;1960854;-74
2021/05/23 05:34:57;;;;;;;2.98;1.57;;;;;;;;;;353007;107;1960999;-74
2021/05/23 05:36:02;;;;;;;4.83;1.39;;;;;;;;;;347169;106;1960701;-73
2021/05/23 05:37:07;;;;;;;9.52;1.98;;;;;;;;;;364715;108;1960666;-73
2021/05/23 05:38:13;;;;;;;3.34;1.44;;;;;;;;;;371208;104;1960718;-74
2021/05/23 05:39:25;;;;;;;3.57;1.57;;;;;;;;;;398807;102;1960750;-73
2021/05/23 05:40:32;;;;;;;3.79;1.42;;;;;;;;;;363585;105;1962021;-73
2021/05/23 05:41:37;;;;;;;4.14;1.63;;;;;;;;;;362360;105;1962067;-73
2021/05/23 05:42:42;;;;;;;3.32;1.57;;;;;;;;;;373799;107;1963029;-74
2021/05/23 05:43:48;;;;;;;5.56;1.82;;;;;;;;;;377879;106;1963579;-72
2021/05/23 05:44:53;;;;;;;3.18;1.12;;;;;;;;;;377513;105;1963950;-73
2021/05/23 05:45:58;;;;;;;4.89;1.36;;;;;;;;;;376906;105;1960737;-73
2021/05/23 05:47:03;;;;;;;1.94;1.20;;;;;;;;;;363554;108;1961989;-73
2021/05/23 05:48:09;;;;;;;7.05;1.59;;;;;;;;;;365978;108;1961950;-73
2021/05/23 05:49:13;;;;;;;3.80;1.29;;;;;;;;;;372488;105;1964871;-73
2021/05/23 05:50:19;;;;;;;3.82;1.47;;;;;;;;;;374947;106;1961935;-73
2021/05/23 05:51:24;;;;;;;2.19;1.19;;;;;;;;;;373242;106;1961957;-73
2021/05/23 05:52:28;;;;;;;2.37;1.69;;;;;;;;;;378008;105;1961977;-74
2021/05/23 05:53:34;;;;;;;2.82;1.11;;;;;;;;;;375857;107;1961866;-74
2021/05/23 05:54:39;;;;;;;3.92;1.72;;;;;;;;;;377321;105;1961876;-73
2021/05/23 05:55:44;;;;;;;3.52;1.51;;;;;;;;;;376014;105;1961983;-73
2021/05/23 05:57:01;;;;;;;5.02;2.07;;;;;;;;;;375637;105;1961871;-73
2021/05/23 05:58:07;;;;;;;4.18;1.48;;;;;;;;;;300934;113;2070909;-73
2021/05/23 05:59:13;;;;;;;3.15;1.34;;;;;;;;;;299693;113;2096906;-74
2021/05/23 06:00:20;;;;;;;5.37;1.58;;;;;;;;;;343936;116;1961996;-72
2021/05/23 06:01:25;;;;;;;3.82;1.73;;;;;;;;;;343202;116;1962008;-73
2021/05/23 06:02:30;;;;;;;5.05;1.73;;;;;;;;;;334397;114;1962961;-73
2021/05/23 06:03:35;;;;;;;3.49;1.99;;;;;;;;;;348476;109;1962045;-74
2021/05/23 06:04:40;;;;;;;3.08;1.29;;;;;;;;;;353611;115;1961755;-74
2021/05/23 06:05:45;;;;;;;2.33;1.27;;;;;;;;;;344616;115;1962989;-73
2021/05/23 06:06:51;;;;;;;2.92;1.32;;;;;;;;;;347581;115;1961906;-74
2021/05/23 06:07:56;;;;;;;3.15;1.43;;;;;;;;;;336550;119;1963951;-73
2021/05/23 06:09:01;;;;;;;4.22;1.65;;;;;;;;;;344086;117;1961858;-73
2021/05/23 06:10:10;;;;;;;4.84;1.14;;;;;;;;;;344020;111;1965958;-74
2021/05/23 06:11:15;;;;;;;3.97;1.57;;;;;;;;;;349141;114;1960864;-74
2021/05/23 06:12:20;;;;;;;5.41;1.98;;;;;;;;;;351276;115;1960949;-73
2021/05/23 06:13:25;;;;;;;3.37;1.70;;;;;;;;;;347844;114;1960918;-73
2021/05/23 06:14:30;;;;;;;5.23;1.59;;;;;;;;;;351432;115;1963986;-73
2021/05/23 06:15:35;;;;;;;4.60;1.52;;;;;;;;;;352000;113;1961984;-72
2021/05/23 06:16:41;;;;;;;3.56;1.52;;;;;;;;;;351452;114;1963060;-74
2021/05/23 06:17:46;;;;;;;3.73;1.56;;;;;;;;;;351929;114;1961995;-73
2021/05/23 06:18:51;;;;;;;3.07;1.40;;;;;;;;;;356198;112;1961026;-73
2021/05/23 06:20:04;;;;;;;4.17;1.62;;;;;;;;;;393764;103;1985925;-74
2021/05/23 06:21:09;;;;;;;2.99;1.43;;;;;;;;;;323586;106;2079919;-72
2021/05/23 06:22:14;;;;;;;4.22;1.67;;;;;;;;;;349347;106;1961990;-73
2021/05/23 06:23:36;;;;;;;4.62;1.92;;;;;;;;;;385607;106;1987956;-73
2021/05/23 06:24:41;;;;;;;6.88;2.15;;;;;;;;;;368708;109;1962049;-75
2021/05/23 06:25:47;;;;;;;3.14;1.41;;;;;;;;;;362339;112;1962919;-73
2021/05/23 06:26:52;;;;;;;4.22;1.94;;;;;;;;;;364315;110;1962075;-73
2021/05/23 06:28:08;;;;;;;2.66;1.51;;;;;;;;;;353827;113;1961991;-74
2021/05/23 06:29:13;;;;;;;3.02;1.49;;;;;;;;;;351355;115;1961984;-74
2021/05/23 06:30:21;;;;;;;2.31;1.27;;;;;;;;;;350322;113;1960802;-75
2021/05/23 06:31:26;;;;;;;3.93;1.43;;;;;;;;;;357413;113;1961986;-73